Terminal Aerodrome Forecast
Issued by NWS

Home | Current Version | Previous Version | Text Only | Print | Product List | Glossary On
Versions: 1 2 3 4 5 6 7 8 9 10 11 12 13 14 15 16 17 18 19 20 21 22 23 24 25 26 27 28 29 30 31 32 33 34 35 36 37 38 39 40 41 42
723
FTUS45 KGJT 301131
TAFMTJ
TAF
KMTJ 301131Z 3012/0112 14005KT P6SM FEW040
     FM301500 34005KT P6SM SKC
     FM301800 30009KT P6SM SCT250
     FM302100 34006KT P6SM FEW150 BKN250
     FM010300 14006KT P6SM BKN110=

USA.gov is the U.S. government's official web portal to all federal, state and local government web resources and services.